Time;durP1;ratioP1;P1;durP2;ratioP2;P2;SDS_P1;SDS_P2;PMS_P1;PMS_P2;Temp;Humidity;BMP_temperature;BMP_pressure;BME280_temperature;BME280_humidity;BME280_pressure;Samples;Min_cycle;Max_cycle;Signal;HPM_P1;HPM_P2
2021/01/13 00:00:28;;;;;;;9.23;7.10;;;;;;;8.63;47.30;99212.52;1829159;77;21098;-64
2021/01/13 00:02:56;;;;;;;9.88;8.20;;;;;;;8.63;47.31;99210.72;1809014;77;21109;-63
2021/01/13 00:05:24;;;;;;;10.58;7.67;;;;;;;8.63;47.31;99221.30;1823198;76;21360;-63
2021/01/13 00:07:51;;;;;;;10.05;7.92;;;;;;;8.62;47.30;99214.34;1803294;78;21494;-64
2021/01/13 00:10:19;;;;;;;10.63;7.70;;;;;;;8.64;47.31;99218.15;1841090;76;21167;-63
2021/01/13 00:12:47;;;;;;;8.85;7.75;;;;;;;8.64;47.30;99215.50;1811498;78;21468;-64
2021/01/13 00:15:15;;;;;;;9.55;7.75;;;;;;;8.64;47.30;99208.89;1816089;78;21088;-63
2021/01/13 00:17:49;;;;;;;9.60;7.80;;;;;;;8.63;47.30;99196.15;1816005;77;21862;-64
2021/01/13 00:20:16;;;;;;;8.53;7.22;;;;;;;8.62;47.29;99190.52;1811694;78;21206;-62
2021/01/13 00:22:47;;;;;;;10.95;8.30;;;;;;;8.63;47.31;99188.69;1847183;75;21132;-63
2021/01/13 00:25:18;;;;;;;9.78;7.67;;;;;;;8.62;47.31;99187.86;1824595;77;22213;-63
2021/01/13 00:27:46;;;;;;;11.83;8.55;;;;;;;8.61;47.29;99179.58;1822215;77;21119;-63
2021/01/13 00:30:15;;;;;;;10.85;8.93;;;;;;;8.62;47.30;99177.78;1801972;78;21362;-64
2021/01/13 00:32:45;;;;;;;9.15;7.47;;;;;;;8.61;47.28;99169.49;1790073;78;21125;-63
2021/01/13 00:35:14;;;;;;;10.70;7.80;;;;;;;8.61;47.30;99182.73;1839225;77;21167;-64
2021/01/13 00:37:42;;;;;;;9.80;8.43;;;;;;;8.61;47.31;99182.73;1852522;75;21134;-63
2021/01/13 00:40:10;;;;;;;10.68;8.20;;;;;;;8.60;47.32;99167.86;1840083;77;21143;-63
2021/01/13 00:42:48;;;;;;;11.40;8.18;;;;;;;8.61;47.27;99164.20;1782472;78;21590;-64
2021/01/13 00:45:16;;;;;;;8.83;7.58;;;;;;;8.59;47.31;99143.18;1834716;76;21146;-63
2021/01/13 00:47:51;;;;;;;9.73;8.20;;;;;;;8.58;47.29;99141.55;1827518;76;21152;-63
2021/01/13 00:50:20;;;;;;;10.10;7.78;;;;;;;8.59;47.31;99148.98;1811210;76;21605;-64
2021/01/13 00:52:49;;;;;;;11.35;8.10;;;;;;;8.58;47.32;99137.57;1812025;76;21141;-64
2021/01/13 00:55:16;;;;;;;9.23;8.00;;;;;;;8.58;47.33;99133.59;1809170;76;21196;-62
2021/01/13 00:57:50;;;;;;;11.35;8.83;;;;;;;8.58;47.33;99136.25;1817910;78;21571;-64
2021/01/13 01:00:19;;;;;;;9.75;8.30;;;;;;;8.58;47.32;99143.38;1796072;77;21159;-63
2021/01/13 01:02:49;;;;;;;10.15;7.90;;;;;;;8.57;47.32;99137.23;1800780;79;21183;-64
2021/01/13 01:05:17;;;;;;;11.12;8.63;;;;;;;8.57;47.33;99128.47;1784637;79;21087;-65
2021/01/13 01:07:45;;;;;;;9.78;8.15;;;;;;;8.57;47.29;99125.31;1825314;77;21388;-64
2021/01/13 01:10:17;;;;;;;10.55;8.45;;;;;;;8.58;47.29;99124.84;1802783;77;21130;-64
2021/01/13 01:12:45;;;;;;;11.10;8.73;;;;;;;8.57;47.29;99121.34;1785475;79;21143;-64
2021/01/13 01:15:13;;;;;;;12.23;8.53;;;;;;;8.57;47.29;99131.12;1809055;79;21162;-63
2021/01/13 01:17:41;;;;;;;10.65;8.20;;;;;;;8.56;47.29;99141.39;1808498;77;21138;-63
2021/01/13 01:20:10;;;;;;;12.10;8.38;;;;;;;8.57;47.32;99141.70;1818195;77;21221;-63
2021/01/13 01:22:53;;;;;;;10.90;8.20;;;;;;;8.56;47.29;99146.69;1838493;77;21162;-64
2021/01/13 01:25:29;;;;;;;11.12;8.25;;;;;;;8.57;47.32;99155.77;1804489;79;21128;-65
2021/01/13 01:28:00;;;;;;;11.38;8.05;;;;;;;8.57;47.32;99150.47;1816047;77;21088;-63
2021/01/13 01:30:29;;;;;;;11.10;8.53;;;;;;;8.56;47.28;99142.72;1784656;79;21173;-63
2021/01/13 01:32:56;;;;;;;10.38;8.25;;;;;;;8.55;47.30;99122.52;1832368;77;21353;-64
2021/01/13 01:35:23;;;;;;;9.85;7.85;;;;;;;8.56;47.31;99118.38;1813029;77;21198;-63
2021/01/13 01:37:53;;;;;;;9.93;8.38;;;;;;;8.56;47.28;99117.56;1801784;77;21610;-64
2021/01/13 01:40:21;;;;;;;10.80;8.60;;;;;;;8.56;47.27;99121.03;1804856;79;21167;-64
2021/01/13 01:42:55;;;;;;;11.20;8.63;;;;;;;8.56;47.26;99109.12;1807143;77;21184;-64
2021/01/13 01:45:25;;;;;;;9.35;7.50;;;;;;;8.57;47.26;99094.05;1800203;79;21592;-63
2021/01/13 01:48:07;;;;;;;8.43;7.28;;;;;;;8.56;47.27;99094.56;1815637;77;21206;-64
2021/01/13 01:53:15;;;;;;;9.93;7.97;;;;;;;8.57;47.26;99076.34;1745850;79;27941;-63
2021/01/13 01:55:57;;;;;;;10.30;8.08;;;;;;;8.49;47.35;99094.09;1726702;82;21151;-63
2021/01/13 01:58:27;;;;;;;8.78;7.45;;;;;;;8.50;47.35;99083.80;1719273;82;21340;-64
2021/01/13 02:00:59;;;;;;;8.73;7.70;;;;;;;8.50;47.32;99082.01;1734855;82;21163;-64
2021/01/13 02:03:47;;;;;;;10.00;8.28;;;;;;;8.50;47.31;99078.52;1732346;82;22166;-64
2021/01/13 02:06:17;;;;;;;9.00;7.67;;;;;;;8.51;47.33;99070.91;1727242;82;21202;-63
2021/01/13 02:08:48;;;;;;;9.88;7.95;;;;;;;8.49;47.34;99067.11;1736847;82;21183;-63
2021/01/13 02:11:17;;;;;;;9.78;7.70;;;;;;;8.48;47.34;99063.30;1727842;82;21660;-62
2021/01/13 02:13:46;;;;;;;9.80;8.03;;;;;;;8.46;47.31;99055.55;1740385;82;21172;-63
2021/01/13 02:16:18;;;;;;;10.20;8.25;;;;;;;8.47;47.34;99051.89;1725759;82;21181;-62
2021/01/13 02:18:48;;;;;;;10.00;7.72;;;;;;;8.48;47.34;99054.88;1728783;82;21135;-62
2021/01/13 02:21:18;;;;;;;8.20;7.25;;;;;;;8.48;47.32;99056.69;1727349;82;21597;-63
2021/01/13 02:23:51;;;;;;;10.78;7.75;;;;;;;8.47;47.33;99055.87;1714930;82;21442;-63
2021/01/13 02:26:30;;;;;;;;;;;;;;;8.46;47.33;99049.75;1737787;82;21210;-63
2021/01/13 02:29:30;;;;;;;7.78;6.60;;;;;;;8.48;47.32;99040.80;1706240;82;20305;-63
2021/01/13 02:32:15;;;;;;;8.25;6.58;;;;;;;8.40;47.45;99034.53;1725889;82;21667;-63
2021/01/13 02:34:50;;;;;;;8.65;7.62;;;;;;;8.38;47.45;99035.20;1734753;82;21628;-63
2021/01/13 02:37:38;;;;;;;10.30;7.62;;;;;;;8.40;47.45;99040.30;1735621;82;21274;-62
2021/01/13 02:40:14;;;;;;;8.48;6.95;;;;;;;8.40;47.45;99033.20;1681143;83;21166;-63
2021/01/13 02:43:02;;;;;;;8.58;6.90;;;;;;;8.39;47.41;99038.16;1710664;82;21588;-62
2021/01/13 02:45:33;;;;;;;8.40;6.83;;;;;;;8.39;47.43;99024.11;1734262;82;21183;-63
2021/01/13 02:48:06;;;;;;;9.08;7.42;;;;;;;8.38;47.42;99019.80;1720814;82;21217;-62
2021/01/13 02:50:43;;;;;;;8.68;7.05;;;;;;;8.37;47.44;99017.66;1705424;82;21212;-63
2021/01/13 02:53:19;;;;;;;7.85;6.42;;;;;;;8.39;47.43;99013.02;1723946;82;21191;-65
2021/01/13 02:55:58;;;;;;;8.93;7.47;;;;;;;8.38;47.40;99007.41;1717469;82;21142;-63
2021/01/13 02:58:36;;;;;;;8.00;6.35;;;;;;;8.38;47.39;98999.95;1716859;82;21175;-64
2021/01/13 03:01:09;;;;;;;9.43;7.42;;;;;;;8.38;47.41;99007.41;1717816;82;21089;-64
2021/01/13 03:03:37;;;;;;;7.62;6.83;;;;;;;8.37;47.41;99007.07;1700701;82;21358;-65
2021/01/13 03:06:09;;;;;;;8.78;7.17;;;;;;;8.38;47.40;99003.92;1708656;82;21663;-64
2021/01/13 03:09:04;;;;;;;8.48;6.85;;;;;;;8.38;47.38;99006.09;1716927;82;21232;-62
2021/01/13 03:11:32;;;;;;;8.23;6.97;;;;;;;8.38;47.38;99004.77;1708331;82;21189;-63
2021/01/13 03:14:09;;;;;;;8.43;7.40;;;;;;;8.37;47.37;99004.93;1713725;82;21370;-63
2021/01/13 03:16:44;;;;;;;8.58;6.42;;;;;;;8.36;47.37;99004.09;1708534;82;21266;-62
2021/01/13 03:19:19;;;;;;;7.97;6.78;;;;;;;8.37;47.36;98995.67;1671896;84;21621;-62
2021/01/13 03:22:01;;;;;;;9.35;7.72;;;;;;;8.36;47.36;98998.80;1721364;82;21635;-63
2021/01/13 03:24:43;;;;;;;7.72;6.92;;;;;;;8.37;47.35;99000.96;1706749;82;21148;-63
2021/01/13 03:27:10;;;;;;;7.85;7.03;;;;;;;8.37;47.34;98998.31;1695514;82;21136;-63
2021/01/13 03:29:40;;;;;;;9.05;7.90;;;;;;;8.36;47.33;98989.53;1706201;82;21353;-63
2021/01/13 03:32:11;;;;;;;8.15;6.85;;;;;;;8.36;47.30;98994.82;1684467;82;21168;-63
2021/01/13 03:35:11;;;;;;;8.48;7.03;;;;;;;8.36;47.30;98981.59;1711375;82;21640;-62
2021/01/13 03:37:56;;;;;;;8.97;7.50;;;;;;;8.35;47.30;98974.66;1706179;82;21173;-62
2021/01/13 03:40:29;;;;;;;10.88;7.15;;;;;;;8.35;47.29;98968.05;1708116;82;21129;-63
2021/01/13 03:42:59;;;;;;;9.18;7.55;;;;;;;8.34;47.32;98970.86;1708135;82;21539;-63
2021/01/13 03:45:37;;;;;;;8.60;6.85;;;;;;;8.32;47.31;98965.73;1716785;82;21803;-62
2021/01/13 03:48:33;;;;;;;8.03;7.22;;;;;;;8.32;47.30;98971.03;1699286;82;21117;-64
2021/01/13 03:51:01;;;;;;;7.80;6.92;;;;;;;8.33;47.31;98968.72;1702484;82;21616;-64
2021/01/13 03:53:28;;;;;;;8.38;7.08;;;;;;;8.32;47.31;98961.77;1720752;82;21191;-64
2021/01/13 03:55:57;;;;;;;9.25;7.33;;;;;;;8.32;47.28;98958.30;1714566;82;22062;-64
2021/01/13 03:58:51;;;;;;;7.47;6.60;;;;;;;8.32;47.29;98957.80;1707126;82;21172;-64
2021/01/13 04:01:25;;;;;;;;;;;;;;;8.32;47.28;98949.85;1708392;82;21579;-64
2021/01/13 04:04:24;;;;;;;9.03;6.67;;;;;;;8.30;47.26;98941.27;1701602;82;20297;-64
2021/01/13 04:07:00;;;;;;;8.00;6.85;;;;;;;8.23;47.41;98941.14;1710395;82;21147;-64
2021/01/13 04:09:32;;;;;;;8.23;7.10;;;;;;;8.23;47.38;98936.36;1706512;82;21215;-65
2021/01/13 04:12:16;;;;;;;6.87;6.17;;;;;;;8.23;47.39;98933.20;1716707;82;21125;-63
2021/01/13 04:14:54;;;;;;;7.97;6.72;;;;;;;8.23;47.38;98931.88;1706401;82;21188;-64
2021/01/13 04:17:24;;;;;;;8.83;6.95;;;;;;;8.23;47.36;98930.56;1712876;82;21172;-64
2021/01/13 04:19:52;;;;;;;7.80;6.80;;;;;;;8.24;47.34;98918.15;1721782;82;21181;-64
2021/01/13 04:22:25;;;;;;;8.23;7.37;;;;;;;8.24;47.33;98916.83;1714701;82;21203;-63
2021/01/13 04:24:52;;;;;;;7.17;6.10;;;;;;;8.26;47.30;98921.44;1707539;82;21203;-63
2021/01/13 04:27:19;;;;;;;8.55;7.42;;;;;;;8.26;47.30;98920.12;1716440;82;21161;-63
2021/01/13 04:29:50;;;;;;;8.28;6.42;;;;;;;8.26;47.30;98922.26;1712825;82;21227;-62
2021/01/13 04:32:17;;;;;;;9.30;7.17;;;;;;;8.27;47.27;98925.24;1711957;81;21188;-63
2021/01/13 04:34:46;;;;;;;8.73;7.60;;;;;;;8.28;47.26;98923.41;1700932;82;21417;-63
2021/01/13 04:37:14;;;;;;;7.80;6.20;;;;;;;8.28;47.25;98914.97;1708557;82;21155;-62
2021/01/13 04:39:43;;;;;;;7.80;6.80;;;;;;;8.28;47.21;98914.97;1707059;82;21619;-63
2021/01/13 04:42:14;;;;;;;7.47;6.40;;;;;;;8.29;47.21;98917.14;1706924;82;21155;-63
2021/01/13 04:45:05;;;;;;;8.13;6.53;;;;;;;8.28;47.19;98918.94;1709567;82;21164;-62
2021/01/13 04:47:48;;;;;;;8.63;7.30;;;;;;;8.30;47.19;98920.09;1715610;82;21263;-63
2021/01/13 04:50:19;;;;;;;7.92;6.87;;;;;;;8.28;47.18;98916.30;1713803;82;21621;-65
2021/01/13 04:52:50;;;;;;;8.00;6.80;;;;;;;8.27;47.20;98919.95;1708113;82;21222;-64
2021/01/13 04:55:26;;;;;;;8.83;6.75;;;;;;;8.28;47.17;98908.86;1687239;83;21131;-63
2021/01/13 04:58:39;;;;;;;7.70;6.42;;;;;;;8.28;47.19;98892.48;1703996;83;21172;-64
2021/01/13 05:01:34;;;;;;;9.25;6.70;;;;;;;8.28;47.13;98893.80;1714207;83;21402;-63
2021/01/13 05:04:27;;;;;;;9.75;7.25;;;;;;;8.26;47.18;98889.69;1709273;83;21393;-64
2021/01/13 05:07:15;;;;;;;7.80;6.62;;;;;;;8.23;47.21;98895.34;1716818;83;21210;-63
2021/01/13 05:09:56;;;;;;;8.25;6.72;;;;;;;8.22;47.22;98900.30;1717382;83;21119;-64
2021/01/13 05:12:26;;;;;;;8.85;7.00;;;;;;;8.20;47.24;98901.79;1712474;83;21194;-63
2021/01/13 05:14:59;;;;;;;8.58;7.12;;;;;;;8.21;47.25;98901.31;1719573;83;21358;-63
2021/01/13 05:17:36;;;;;;;8.97;6.87;;;;;;;8.20;47.25;98895.17;1708671;83;21738;-62
2021/01/13 05:20:24;;;;;;;7.83;6.53;;;;;;;8.21;47.24;98896.02;1723547;83;21182;-63
2021/01/13 05:22:53;;;;;;;6.60;5.95;;;;;;;8.20;47.25;98889.88;1725394;83;21178;-64
2021/01/13 05:25:43;;;;;;;7.95;7.05;;;;;;;8.19;47.25;98886.08;1725365;83;21175;-63
2021/01/13 05:28:15;;;;;;;7.78;7.00;;;;;;;8.20;47.29;98886.42;1713169;83;21709;-63
2021/01/13 05:30:53;;;;;;;7.40;6.30;;;;;;;8.18;47.26;98877.84;1694679;83;21261;-64
2021/01/13 05:33:23;;;;;;;7.83;6.95;;;;;;;8.19;47.24;98875.02;1707064;83;21110;-64
2021/01/13 05:35:53;;;;;;;8.90;7.08;;;;;;;8.19;47.25;98876.82;1710159;83;21175;-63
2021/01/13 05:38:33;;;;;;;7.90;6.65;;;;;;;8.20;47.25;98870.55;1721621;83;21134;-65
2021/01/13 05:41:12;;;;;;;8.38;6.65;;;;;;;8.19;47.23;98871.05;1693500;83;21474;-64
2021/01/13 05:43:45;;;;;;;7.95;6.92;;;;;;;8.20;47.22;98863.93;1718654;83;21182;-64
2021/01/13 05:46:14;;;;;;;8.18;6.37;;;;;;;8.20;47.21;98865.25;1715073;83;21178;-64
2021/01/13 05:48:45;;;;;;;8.85;6.92;;;;;;;8.20;47.22;98861.28;1696791;83;21179;-64
2021/01/13 05:51:13;;;;;;;8.23;6.85;;;;;;;8.20;47.22;98860.78;1725330;83;21114;-64
2021/01/13 05:53:51;;;;;;;8.65;7.17;;;;;;;8.21;47.20;98856.33;1699999;83;22190;-62
2021/01/13 05:56:19;;;;;;;8.10;7.05;;;;;;;8.21;47.16;98857.66;1700492;82;21184;-63
2021/01/13 05:58:47;;;;;;;9.25;7.17;;;;;;;8.23;47.17;98866.24;1708806;82;21214;-62
2021/01/13 06:01:38;;;;;;;8.00;6.17;;;;;;;8.22;47.17;98869.88;1694519;82;21092;-65
2021/01/13 06:04:08;;;;;;;8.78;7.28;;;;;;;8.23;47.13;98869.70;1709215;82;21152;-67
2021/01/13 06:06:38;;;;;;;8.40;7.47;;;;;;;8.22;47.15;98871.20;1693050;82;22300;-63
2021/01/13 06:09:06;;;;;;;8.75;7.85;;;;;;;8.22;47.16;98867.22;1704894;82;21215;-65
2021/01/13 06:11:35;;;;;;;8.45;6.97;;;;;;;8.23;47.13;98868.89;1702572;82;21588;-64
2021/01/13 06:14:04;;;;;;;8.08;7.28;;;;;;;8.22;47.14;98865.39;1700427;82;21152;-64
2021/01/13 06:16:31;;;;;;;8.80;7.12;;;;;;;8.22;47.13;98858.78;1706984;82;21576;-65
2021/01/13 06:18:59;;;;;;;9.03;7.92;;;;;;;8.24;47.09;98861.26;1712503;82;22315;-64
2021/01/13 06:21:27;;;;;;;8.93;6.90;;;;;;;8.25;47.11;98865.56;1700744;82;21493;-63
2021/01/13 06:23:55;;;;;;;8.78;6.95;;;;;;;8.24;47.11;98863.91;1712967;82;21149;-64
2021/01/13 06:26:23;;;;;;;10.35;7.83;;;;;;;8.23;47.12;98864.92;1713460;82;21648;-64
2021/01/13 06:29:03;;;;;;;8.83;6.95;;;;;;;8.26;47.08;98871.17;1704499;82;21120;-63
2021/01/13 06:31:31;;;;;;;9.00;7.25;;;;;;;8.25;47.08;98867.70;1700912;82;21219;-64
2021/01/13 06:34:28;;;;;;;8.15;6.85;;;;;;;8.25;47.07;98869.53;1710246;82;21224;-63
2021/01/13 06:37:33;;;;;;;9.78;6.70;;;;;;;8.25;47.08;98865.56;1711131;82;21167;-64
2021/01/13 06:40:08;;;;;;;7.62;6.72;;;;;;;8.23;47.09;98862.27;1667998;85;21712;-64
2021/01/13 06:42:35;;;;;;;9.90;7.37;;;;;;;8.21;47.09;98857.15;1665579;84;21596;-65
2021/01/13 06:45:04;;;;;;;10.32;7.85;;;;;;;8.21;47.11;98853.69;1673832;84;22197;-64
2021/01/13 06:47:33;;;;;;;9.58;8.43;;;;;;;8.22;47.07;98849.52;1669283;84;21250;-66
2021/01/13 06:50:00;;;;;;;9.18;7.72;;;;;;;8.21;47.07;98836.48;1669673;84;21668;-66
2021/01/13 06:52:32;;;;;;;8.23;7.30;;;;;;;8.23;47.09;98839.78;1678796;84;21236;-64
2021/01/13 06:55:00;;;;;;;9.23;7.45;;;;;;;8.23;47.07;98837.14;1671475;85;21148;-65
2021/01/13 06:57:30;;;;;;;9.28;7.15;;;;;;;8.23;47.07;98833.98;1669136;85;21219;-66
2021/01/13 06:59:59;;;;;;;10.00;7.35;;;;;;;8.24;47.04;98832.16;1674742;85;21171;-64
2021/01/13 07:02:34;;;;;;;9.35;7.80;;;;;;;8.24;47.05;98834.80;1676623;85;21663;-64
2021/01/13 07:05:03;;;;;;;9.35;7.17;;;;;;;8.23;47.05;98826.05;1667273;85;21204;-64
2021/01/13 07:07:31;;;;;;;9.15;7.50;;;;;;;8.25;47.03;98829.34;1674140;85;21195;-64
2021/01/13 07:09:58;;;;;;;9.85;7.03;;;;;;;8.26;47.04;98825.67;1663518;85;21393;-63
2021/01/13 07:12:27;;;;;;;9.43;7.78;;;;;;;8.26;47.02;98826.19;1662343;85;21231;-65
2021/01/13 07:14:57;;;;;;;8.95;7.10;;;;;;;8.26;47.02;98825.67;1666453;85;21106;-65
2021/01/13 07:17:26;;;;;;;9.43;8.08;;;;;;;8.27;46.99;98823.37;1680463;85;21196;-66
2021/01/13 07:19:55;;;;;;;9.05;8.05;;;;;;;8.26;47.00;98820.38;1686108;85;21204;-64
2021/01/13 07:22:27;;;;;;;10.13;8.13;;;;;;;8.27;47.01;98818.08;1680741;85;21207;-65
2021/01/13 07:24:54;;;;;;;8.48;6.92;;;;;;;8.28;46.97;98822.86;1657837;85;21152;-65
2021/01/13 07:27:23;;;;;;;11.50;8.53;;;;;;;8.28;46.96;98826.32;1676750;85;21203;-66
2021/01/13 07:29:51;;;;;;;9.20;7.47;;;;;;;8.28;46.97;98832.12;1685372;84;21183;-65
2021/01/13 07:32:31;;;;;;;9.60;7.97;;;;;;;8.28;46.93;98821.03;1676739;85;21211;-64
2021/01/13 07:35:05;;;;;;;9.25;7.42;;;;;;;8.29;46.93;98821.88;1671040;85;21626;-64
2021/01/13 07:37:56;;;;;;;10.15;8.08;;;;;;;8.30;46.93;98822.19;1670157;85;21155;-64
2021/01/13 07:40:36;;;;;;;9.33;7.92;;;;;;;8.30;46.92;98820.86;1670563;85;21215;-65
2021/01/13 07:43:09;;;;;;;10.88;8.55;;;;;;;8.29;46.93;98809.97;1682483;85;21193;-66
2021/01/13 07:45:43;;;;;;;10.23;8.27;;;;;;;8.29;46.94;98803.35;1673668;85;21746;-64
2021/01/13 07:48:32;;;;;;;10.40;8.45;;;;;;;8.28;46.93;98798.54;1671094;85;22262;-65
2021/01/13 07:51:08;;;;;;;10.88;8.65;;;;;;;8.30;46.94;98789.61;1666060;85;21278;-63
2021/01/13 07:53:39;;;;;;;9.78;8.25;;;;;;;8.30;47.29;98788.29;1688595;83;21138;-62
2021/01/13 07:56:12;;;;;;;9.63;8.28;;;;;;;8.30;47.32;98782.48;1692910;83;21189;-63
2021/01/13 07:58:45;;;;;;;10.58;8.53;;;;;;;8.30;47.31;98774.55;1690748;84;21231;-63
2021/01/13 08:01:48;;;;;;;10.10;8.53;;;;;;;8.31;47.29;98773.56;1681515;84;21210;-63
2021/01/13 08:04:38;;;;;;;11.22;8.33;;;;;;;8.32;47.29;98771.73;1658874;83;21291;-60
2021/01/13 08:07:16;;;;;;;10.80;8.48;;;;;;;8.31;47.24;98762.98;1682838;84;21657;-64
2021/01/13 08:09:51;;;;;;;11.83;8.80;;;;;;;8.31;47.26;98763.48;1690785;84;21182;-62
2021/01/13 08:13:03;;;;;;;10.23;8.95;;;;;;;8.31;47.24;98757.69;1674818;84;21590;-65
2021/01/13 08:15:51;;;;;;;13.20;8.75;;;;;;;8.33;47.21;98761.48;1670251;84;21217;-62
2021/01/13 08:18:58;;;;;;;11.20;8.78;;;;;;;8.31;47.18;98759.02;1669387;84;21179;-63
2021/01/13 08:21:36;;;;;;;11.63;8.75;;;;;;;8.30;47.16;98750.73;1701225;83;21186;-62
2021/01/13 08:24:06;;;;;;;10.20;8.33;;;;;;;8.30;47.14;98750.73;1674840;83;21202;-62
2021/01/13 08:26:34;;;;;;;11.40;8.78;;;;;;;8.31;47.14;98747.10;1690428;84;21194;-62
2021/01/13 08:29:02;;;;;;;10.03;8.50;;;;;;;8.32;47.12;98747.41;1693300;83;22694;-62
2021/01/13 08:31:31;;;;;;;10.18;8.78;;;;;;;8.34;47.09;98738.79;1682942;83;21218;-63
2021/01/13 08:34:09;;;;;;;12.05;8.63;;;;;;;8.36;47.07;98730.68;1670010;84;21161;-62
2021/01/13 08:36:39;;;;;;;11.15;8.98;;;;;;;8.37;47.04;98728.37;1679122;84;21230;-62
2021/01/13 08:39:15;;;;;;;10.53;9.03;;;;;;;8.38;47.00;98729.52;1681026;84;21221;-63
2021/01/13 08:41:44;;;;;;;11.18;9.03;;;;;;;8.39;46.97;98726.36;1696794;83;21223;-62
2021/01/13 08:44:17;;;;;;;11.60;9.15;;;;;;;8.41;46.95;98729.66;1696745;83;21212;-63
2021/01/13 08:47:01;;;;;;;10.75;8.60;;;;;;;8.43;46.95;98731.65;1696316;83;21141;-63
2021/01/13 08:49:32;;;;;;;10.30;8.20;;;;;;;8.43;46.92;98718.42;1702527;83;21138;-63
2021/01/13 08:52:18;;;;;;;10.30;8.83;;;;;;;8.45;46.89;98716.41;1706314;83;21090;-64
2021/01/13 08:55:00;;;;;;;10.80;9.27;;;;;;;8.45;46.86;98717.23;1708425;83;21690;-63
2021/01/13 08:57:32;;;;;;;9.83;8.63;;;;;;;8.46;46.83;98707.48;1699283;83;21165;-64
2021/01/13 09:00:08;;;;;;;14.38;8.88;;;;;;;8.46;46.83;98707.48;1672703;83;21180;-62
2021/01/13 09:02:41;;;;;;;9.80;8.28;;;;;;;8.50;46.79;98707.92;1705967;83;21169;-63
2021/01/13 09:05:10;;;;;;;11.75;9.35;;;;;;;8.49;46.76;98697.84;1692137;83;21168;-64
2021/01/13 09:07:44;;;;;;;13.62;9.60;;;;;;;8.51;46.74;98691.05;1705326;83;22368;-64
2021/01/13 09:10:14;;;;;;;12.07;9.88;;;;;;;8.52;46.73;98684.73;1698969;83;21181;-62
2021/01/13 09:12:44;;;;;;;11.33;8.18;;;;;;;8.52;46.67;98680.77;1707362;83;21137;-63
2021/01/13 09:15:18;;;;;;;11.25;9.53;;;;;;;8.55;46.64;98677.77;1700098;83;21146;-63
2021/01/13 09:18:00;;;;;;;11.08;8.30;;;;;;;8.55;46.63;98669.31;1697293;83;21149;-65
2021/01/13 09:20:32;;;;;;;10.28;9.05;;;;;;;8.56;46.64;98659.58;1699325;83;22148;-66
2021/01/13 09:23:03;;;;;;;10.88;8.68;;;;;;;8.58;46.62;98661.03;1703014;83;21661;-66
2021/01/13 09:25:40;;;;;;;11.55;9.68;;;;;;;8.61;46.64;98661.16;1698980;83;21196;-64
2021/01/13 09:28:16;;;;;;;10.60;9.30;;;;;;;8.64;46.61;98670.07;1697422;83;21630;-63
2021/01/13 09:30:44;;;;;;;10.48;8.48;;;;;;;8.65;46.56;98669.89;1697120;83;21184;-65
2021/01/13 09:33:15;;;;;;;10.78;8.98;;;;;;;8.66;46.55;98670.20;1695400;83;21204;-64
2021/01/13 09:35:56;;;;;;;11.05;9.20;;;;;;;8.68;46.52;98671.86;1708921;83;21129;-63
2021/01/13 09:38:34;;;;;;;11.57;9.08;;;;;;;8.70;46.48;98673.31;1677626;83;21174;-64
2021/01/13 09:41:04;;;;;;;10.85;9.03;;;;;;;8.71;46.46;98673.64;1704588;83;21110;-64
2021/01/13 09:43:44;;;;;;;10.45;8.98;;;;;;;8.73;46.43;98670.79;1692437;83;21165;-64
2021/01/13 09:46:26;;;;;;;12.18;9.73;;;;;;;8.75;46.41;98672.75;1696367;83;21365;-65
2021/01/13 09:49:03;;;;;;;12.00;10.10;;;;;;;8.76;46.38;98667.28;1701591;83;21185;-63
2021/01/13 09:51:32;;;;;;;11.08;9.55;;;;;;;8.76;46.37;98665.95;1693390;83;21170;-65
2021/01/13 09:54:02;;;;;;;12.05;10.45;;;;;;;8.77;46.33;98660.14;1699900;83;21174;-66
2021/01/13 09:56:31;;;;;;;11.03;9.80;;;;;;;8.77;46.28;98655.70;1692166;83;21200;-65
2021/01/13 09:59:02;;;;;;;12.20;10.53;;;;;;;8.78;46.24;98648.05;1691851;83;21394;-64
2021/01/13 10:01:38;;;;;;;12.13;9.88;;;;;;;8.80;46.19;98647.88;1691215;83;21157;-65
2021/01/13 10:04:12;;;;;;;11.40;9.65;;;;;;;8.81;46.16;98639.75;1695056;83;21157;-65
2021/01/13 10:06:44;;;;;;;11.60;9.40;;;;;;;8.82;46.12;98633.44;1692127;83;21222;-64
2021/01/13 10:09:18;;;;;;;10.43;8.80;;;;;;;8.83;46.08;98636.93;1694713;83;21121;-65
2021/01/13 10:11:54;;;;;;;11.40;8.83;;;;;;;8.84;46.03;98626.12;1690467;83;21416;-65
2021/01/13 10:14:23;;;;;;;10.95;8.68;;;;;;;8.83;46.03;98617.88;1691514;83;21140;-65
2021/01/13 10:16:51;;;;;;;10.58;8.90;;;;;;;8.84;45.98;98614.72;1697653;83;21139;-65
2021/01/13 10:19:20;;;;;;;12.33;9.78;;;;;;;8.85;45.95;98611.08;1691325;83;21157;-65
2021/01/13 10:21:49;;;;;;;10.25;9.15;;;;;;;8.86;45.93;98604.77;1656893;83;21145;-64
2021/01/13 10:24:18;;;;;;;10.93;9.45;;;;;;;8.87;45.89;98602.95;1692630;83;21384;-64
2021/01/13 10:26:48;;;;;;;10.03;8.55;;;;;;;8.88;45.84;98598.78;1692204;83;21176;-64
2021/01/13 10:29:23;;;;;;;12.25;9.53;;;;;;;8.89;45.84;98598.30;1694981;83;21106;-63
2021/01/13 10:31:51;;;;;;;11.48;8.83;;;;;;;8.89;45.80;98596.45;1691432;83;21148;-62
2021/01/13 10:34:19;;;;;;;9.98;8.88;;;;;;;8.90;45.77;98598.59;1695165;83;21174;-63
2021/01/13 10:36:49;;;;;;;10.95;8.80;;;;;;;8.90;45.75;98591.47;1692014;83;21621;-64
2021/01/13 10:39:29;;;;;;;10.93;9.45;;;;;;;8.92;45.71;98593.94;1699121;83;21182;-63
2021/01/13 10:42:06;;;;;;;10.28;8.38;;;;;;;8.92;45.68;98590.77;1712921;83;21150;-64
2021/01/13 10:44:34;;;;;;;10.48;9.28;;;;;;;8.92;45.64;98515.28;1693678;83;21138;-63
2021/01/13 10:47:06;;;;;;;10.30;8.88;;;;;;;8.93;46.65;98579.70;1699612;83;21173;-63
2021/01/13 10:49:41;;;;;;;13.13;10.15;;;;;;;8.95;48.81;98577.17;1691609;83;21846;-64
2021/01/13 10:52:18;;;;;;;10.63;8.60;;;;;;;8.98;49.48;98568.02;1694020;83;21611;-64
2021/01/13 10:54:50;;;;;;;9.95;8.83;;;;;;;9.00;49.54;98567.33;1691729;83;21530;-64
2021/01/13 10:57:31;;;;;;;10.43;8.48;;;;;;;9.02;49.51;98556.05;1696607;83;21206;-63
2021/01/13 11:00:10;;;;;;;11.78;9.45;;;;;;;9.02;49.41;98551.59;1698839;83;21138;-60
2021/01/13 11:02:39;;;;;;;14.28;9.85;;;;;;;9.03;50.07;98479.03;1696946;83;22415;-61
2021/01/13 11:05:09;;;;;;;15.08;10.25;;;;;;;9.06;53.08;98479.19;1693920;83;21213;-63
2021/01/13 11:07:39;;;;;;;14.15;10.65;;;;;;;9.11;54.72;98543.00;1705791;83;21159;-64
2021/01/13 11:10:11;;;;;;;15.32;10.75;;;;;;;9.18;54.93;98542.58;1701005;83;21185;-63
2021/01/13 11:12:40;;;;;;;15.55;10.45;;;;;;;9.24;55.35;98537.84;1704554;83;21140;-63
2021/01/13 11:15:09;;;;;;;14.68;10.00;;;;;;;9.29;55.24;98534.64;1695845;83;21388;-63
2021/01/13 11:17:36;;;;;;;15.08;10.23;;;;;;;9.33;54.98;98524.45;1691261;83;21593;-63
2021/01/13 11:20:07;;;;;;;14.95;9.73;;;;;;;9.34;54.59;98527.44;1691955;83;21156;-64
2021/01/13 11:22:53;;;;;;;12.98;9.35;;;;;;;9.36;54.21;98518.78;1695102;83;21149;-64
2021/01/13 11:25:39;;;;;;;12.55;9.90;;;;;;;9.37;53.82;98518.61;1695130;83;21543;-65
2021/01/13 11:28:10;;;;;;;13.28;10.23;;;;;;;9.37;53.42;98508.00;1698646;83;21413;-64
2021/01/13 11:30:42;;;;;;;12.47;10.00;;;;;;;9.37;53.01;98507.19;1701932;83;21628;-62
2021/01/13 11:33:11;;;;;;;14.18;10.08;;;;;;;9.36;52.66;98506.86;1691199;83;21049;-62
2021/01/13 11:35:45;;;;;;;11.95;9.73;;;;;;;9.34;52.32;98497.77;1698350;83;21176;-64
2021/01/13 11:38:38;;;;;;;11.85;9.65;;;;;;;9.35;52.01;98494.61;1694496;83;21181;-66
2021/01/13 11:41:49;;;;;;;11.22;8.73;;;;;;;9.34;51.70;98492.98;1705720;83;21294;-64
2021/01/13 11:44:41;;;;;;;13.40;10.03;;;;;;;9.32;51.39;98489.70;1698132;83;21153;-66
2021/01/13 11:47:26;;;;;;;12.55;10.20;;;;;;;9.28;51.10;98492.42;1671954;83;21176;-66
2021/01/13 11:49:55;;;;;;;11.57;9.58;;;;;;;9.25;50.83;98490.95;1706223;83;21189;-66
2021/01/13 11:52:33;;;;;;;11.95;9.85;;;;;;;9.21;50.60;98487.89;1695347;83;21610;-66
2021/01/13 11:55:00;;;;;;;13.13;10.18;;;;;;;9.22;50.39;98486.86;1679834;83;21600;-65
2021/01/13 12:00:23;;;;;;;11.12;9.48;;;;;;;9.24;50.00;98485.35;1850074;77;28653;-66
2021/01/13 12:02:53;;;;;;;10.95;8.35;;;;;;;9.20;49.85;98476.15;1828769;77;21555;-66
2021/01/13 12:05:30;;;;;;;11.60;9.28;;;;;;;9.18;49.66;98476.84;1819067;77;22327;-67
2021/01/13 12:07:59;;;;;;;11.18;9.10;;;;;;;9.17;49.54;98473.35;1823616;77;21122;-67
2021/01/13 12:10:38;;;;;;;10.60;9.15;;;;;;;9.16;49.39;98469.08;1840113;77;21159;-69
2021/01/13 12:13:14;;;;;;;12.68;8.88;;;;;;;9.16;49.25;98471.73;1828137;77;21147;-67
2021/01/13 12:16:03;;;;;;;11.15;8.48;;;;;;;9.16;49.13;98464.30;1825985;77;21107;-65